Terminal Aerodrome Forecast
Issued by NWS Quad Cities IA IL

Home | Current Version | Previous Version | Graphics & Text | Print | Product List | Glossary On
Versions: 1 2 3 4 5 6 7 8 9 10 11 12 13 14 15 16 17 18 19 20 21
000
FTUS43 KDVN 250700 AAA
TAFMLI
TAF AMD
KMLI 250707Z 2507/2606 31008KT P6SM BKN013
     FM250800 32010KT P6SM SCT150
     FM251800 30014G20KT P6SM SCT250
     FM260000 VRB04KT P6SM BKN120=

USA.gov is the U.S. government's official web portal to all federal, state and local government web resources and services.